This is the latest recevied weather packets stored in our database for station/object KF4HJW. If no packets are shown the sender has not sent any weather packets the latest 10 day(s).
| Time | Temp. | Humidity | Pressure | Rain* | Wind** | Luminosity | Snow |
|---|---|---|---|---|---|---|---|
| 1777596022 | 17.22° C | 78% | 1008.4 hPa | 0 mm | - | - | - |
| 1777588822 | 20° C | 65% | 1007.2 hPa | 0 mm | - | - | - |
| 1777574422 | 21.11° C | 60% | 1007.7 hPa | 0 mm | - | - | - |
| 1777560021 | 17.22° C | 79% | 1008.2 hPa | 0 mm | - | - | - |
| 1777552822 | 16.11° C | 90% | 1007.9 hPa | 0 mm | - | - | - |
| 1777545620 | 16.67° C | 95% | 1006.2 hPa | 0 mm | - | - | - |
| 1777542020 | 17.22° C | 95% | 1006 hPa | 0 mm | - | - | - |
| 1777538420 | 17.22° C | 96% | 1005.6 hPa | 0 mm | - | - | - |
| 1777534820 | 16.67° C | 96% | 1006 hPa | 0 mm | - | - | - |
| 1777531220 | 17.22° C | 94% | 1005.7 hPa | 0 mm | - | - | - |
| 1777524021 | 17.78° C | 88% | 1006.8 hPa | 1.78 mm | - | - | - |
| 1777509621 | 20° C | 68% | 1007.1 hPa | 0 mm | - | - | - |
| 1777502422 | 21.67° C | 64% | 1006.9 hPa | 0 mm | - | - | - |
| 1777495222 | 22.78° C | 63% | 1008 hPa | 0 mm | - | - | - |
| 1777488020 | 22.78° C | 63% | 1009.9 hPa | 0 mm | - | - | - |
| 1777484420 | 21.11° C | 68% | 1010.8 hPa | 0 mm | - | - | - |
| 1777480821 | 22.22° C | 66% | 1012 hPa | 0 mm | - | - | - |
| 1777466420 | 14.44° C | 82% | 1014.6 hPa | 0 mm | - | - | - |
| 1777459221 | 10.56° C | 90% | 1013.9 hPa | 0 mm | - | - | - |
| 1777455619 | 10° C | 88% | 1014.3 hPa | 0 mm | - | - | - |
| 1777452019 | 10° C | 87% | 1013.9 hPa | 0 mm | - | - | - |
| 1777448419 | 10° C | 85% | 1014.7 hPa | 0 mm | - | - | - |
| 1777444819 | 10° C | 82% | 1014.3 hPa | 0 mm | - | - | - |
| 1777441219 | 10.56° C | 78% | 1015.4 hPa | 0 mm | - | - | - |
| 1777437620 | 11.11° C | 74% | 1016.8 hPa | 0 mm | - | - | - |
* Rain latest hour (hover to see other rain measurements)
** Current wind speed in m/s (hover to see current wind gust speed)